Strona główna
METAR-TAF:

METAR-TAF

Lotnisko :

Port lotniczy Buri Ram

Buri Ram, Tajlandia

Szerokość geograficzna: 15-13-46N, Długość geograficzna: 103-15-04E, wysokość: 180 m

Aktualna obserwacja pogody

Raport powstał 1 godzina i 15 minut temu, godzina 07:00 UTC
Wiatr 12 kt od północny wschód, zmienny między północ i wschodnio-północny wschód
Temperatura 31°C
Wilgotność 31%
Ciśnienie 1017 hPa
Widzialność 10 km lub więcej
Mało chmury na wysokości 3500 ft

METAR: VTUO 220700Z 04012KT 010V070 9999 FEW035 31/12 Q1017 NOSIG

czas: 15:15 (08:15 UTC)

Prognoza

Raport powstał 3 godziny i 15 minut temu, godzina 05:00 UTC
Prognoza ważna od 22 godzina 06 UTC do 23 godzina 06 UTC
Wiatr 12 kt od północny wschód
Widzialność 10 km lub więcej
Brak chmur poniżej 1500 m i brak chmur cumulonimbus

TAF: VTUO 220500Z 2206/2306 05012KT CAVOK

Obserwacja i prognoza pogody dla ponad 4000 lotnisk (raport METAR i TAF).

Dostępne stacje oznaczono żółtymi i czerwonymi punktami na mapie.

Najedź kursorem aby zobaczyć nazwę stacji.

Kliknij aby zobaczyć obserwacje i prognozy pogody.

Aby zmienić mapę: kliknij na zielony przycisk z czarnym krzyżykiem, aby powiększyć; na zielony przycisk z myślnikiem, aby pomniejszyć; na zielone strzałki, aby przejść do map sąsiednich.


METAR-TAF: